Airbus 320-200 from Nouvelair at Dusseldorf.
 Regi:TS-INQ  LARGER
 MSN Year:2158 2004
 Date of picture:2016-09-13 14:06
 Logs:
 NotamEDDL A4972/16 International 09/13/2016 0400 09/16/2016 2159 HIGH MOBILE CRANE IN DEPARTURE SECTOR RWY 05L. PSN 5800M NE OF THR 23R, 500M NW OF EXTD RCL, 511955N 0065017E. ELEV 417FT / 263FT AGL. NOT MARKED.
 MetarSA 13/09/2016 13:50-> METAR EDDL 131350Z 13008KT 090V170 CAVOK 32/15 Q1013 NOSIG=
 Hits: 31 ID: 2726

Debriefing: Photographed movements of Airports in NW-Europe.
The images of our site attendant is in authorisation from Queen of Sky.
Copying of images of this site have been prohibited in which manner without the authorisation of the photographer.
In behalf of the crew :"Thank you visiting us" - Contact
Factsheets Airbus, 320-200, Nouvelair, made by De Plane! © 2006 - 2022 All rights reserved


.